Terminal Aerodrome Forecast
Issued by NWS Billings, MT

Home | Current Version | Previous Version | Graphics & Text | Print | Product List | Glossary On
Versions: 1 2 3 4 5 6 7 8 9 10 11 12 13 14 15 16 17 18 19 20 21 22 23 24 25 26
925
FTUS45 KBYZ 082320
TAFMLS
TAF
KMLS 082320Z 0900/0924 32014KT P6SM SCT250 WS020/32040KT
     FM090500 32016G24KT P6SM FEW250
     FM091100 27015G24KT P6SM FEW250=

USA.gov is the U.S. government's official web portal to all federal, state and local government web resources and services.